sensor_id;sensor_type;location;lat;lon;timestamp;P1;durP1;ratioP1;P2;durP2;ratioP2
53309;SDS011;39197;53.200;5.792;2023-02-28T00:00:32;70.25;;;26.58;;
53309;SDS011;39197;53.200;5.792;2023-02-28T00:02:58;66.28;;;26.08;;
53309;SDS011;39197;53.200;5.792;2023-02-28T00:05:24;71.10;;;26.17;;
53309;SDS011;39197;53.200;5.792;2023-02-28T00:07:51;59.28;;;21.42;;
53309;SDS011;39197;53.200;5.792;2023-02-28T00:10:18;42.60;;;17.42;;
53309;SDS011;39197;53.200;5.792;2023-02-28T00:12:49;48.95;;;18.67;;
53309;SDS011;39197;53.200;5.792;2023-02-28T00:15:15;32.35;;;9.88;;
53309;SDS011;39197;53.200;5.792;2023-02-28T00:17:41;48.90;;;18.83;;
53309;SDS011;39197;53.200;5.792;2023-02-28T00:20:08;53.97;;;20.55;;
53309;SDS011;39197;53.200;5.792;2023-02-28T00:22:35;52.03;;;21.15;;
53309;SDS011;39197;53.200;5.792;2023-02-28T00:25:03;53.85;;;22.10;;
53309;SDS011;39197;53.200;5.792;2023-02-28T00:27:29;71.63;;;30.35;;
53309;SDS011;39197;53.200;5.792;2023-02-28T00:29:55;38.72;;;15.75;;
53309;SDS011;39197;53.200;5.792;2023-02-28T00:32:21;49.30;;;19.92;;
53309;SDS011;39197;53.200;5.792;2023-02-28T00:34:46;41.30;;;15.38;;
53309;SDS011;39197;53.200;5.792;2023-02-28T00:37:12;41.53;;;14.43;;
53309;SDS011;39197;53.200;5.792;2023-02-28T00:39:38;48.78;;;15.55;;
53309;SDS011;39197;53.200;5.792;2023-02-28T00:42:05;33.95;;;11.43;;
53309;SDS011;39197;53.200;5.792;2023-02-28T00:44:31;35.38;;;10.60;;
53309;SDS011;39197;53.200;5.792;2023-02-28T00:46:57;23.33;;;8.10;;
53309;SDS011;39197;53.200;5.792;2023-02-28T00:49:23;57.15;;;27.10;;
53309;SDS011;39197;53.200;5.792;2023-02-28T00:51:50;56.83;;;28.23;;
53309;SDS011;39197;53.200;5.792;2023-02-28T00:54:17;50.63;;;23.65;;
53309;SDS011;39197;53.200;5.792;2023-02-28T00:56:43;57.10;;;21.92;;
53309;SDS011;39197;53.200;5.792;2023-02-28T00:59:11;39.53;;;18.30;;
53309;SDS011;39197;53.200;5.792;2023-02-28T01:01:37;42.85;;;16.05;;
53309;SDS011;39197;53.200;5.792;2023-02-28T01:04:03;52.88;;;21.75;;
53309;SDS011;39197;53.200;5.792;2023-02-28T01:06:29;32.15;;;11.02;;
53309;SDS011;39197;53.200;5.792;2023-02-28T01:08:57;24.42;;;8.75;;
53309;SDS011;39197;53.200;5.792;2023-02-28T01:11:23;38.95;;;16.08;;
53309;SDS011;39197;53.200;5.792;2023-02-28T01:13:49;47.92;;;27.63;;
53309;SDS011;39197;53.200;5.792;2023-02-28T01:16:15;51.83;;;27.35;;
53309;SDS011;39197;53.200;5.792;2023-02-28T01:18:41;28.55;;;13.07;;
53309;SDS011;39197;53.200;5.792;2023-02-28T01:21:11;24.88;;;9.10;;
53309;SDS011;39197;53.200;5.792;2023-02-28T01:26:06;27.13;;;10.05;;
53309;SDS011;39197;53.200;5.792;2023-02-28T01:28:37;24.85;;;9.23;;
53309;SDS011;39197;53.200;5.792;2023-02-28T01:31:02;15.98;;;6.38;;
53309;SDS011;39197;53.200;5.792;2023-02-28T01:33:28;17.80;;;4.88;;
53309;SDS011;39197;53.200;5.792;2023-02-28T01:36:13;11.05;;;1.70;;
53309;SDS011;39197;53.200;5.792;2023-02-28T01:38:40;10.38;;;1.70;;
53309;SDS011;39197;53.200;5.792;2023-02-28T01:41:07;11.20;;;3.22;;
53309;SDS011;39197;53.200;5.792;2023-02-28T01:46:11;19.60;;;8.95;;
53309;SDS011;39197;53.200;5.792;2023-02-28T01:49:00;18.13;;;7.82;;
53309;SDS011;39197;53.200;5.792;2023-02-28T01:51:47;27.15;;;12.75;;
53309;SDS011;39197;53.200;5.792;2023-02-28T01:54:18;25.42;;;12.25;;
53309;SDS011;39197;53.200;5.792;2023-02-28T01:56:54;31.65;;;11.70;;
53309;SDS011;39197;53.200;5.792;2023-02-28T01:59:35;13.70;;;5.97;;
53309;SDS011;39197;53.200;5.792;2023-02-28T02:02:10;24.70;;;9.57;;
53309;SDS011;39197;53.200;5.792;2023-02-28T02:04:37;36.42;;;11.98;;
53309;SDS011;39197;53.200;5.792;2023-02-28T02:07:07;28.17;;;8.40;;
53309;SDS011;39197;53.200;5.792;2023-02-28T02:09:33;29.83;;;8.98;;
53309;SDS011;39197;53.200;5.792;2023-02-28T02:11:59;23.27;;;6.00;;
53309;SDS011;39197;53.200;5.792;2023-02-28T02:17:06;19.15;;;4.97;;
53309;SDS011;39197;53.200;5.792;2023-02-28T02:34:03;14.00;;;3.92;;
53309;SDS011;39197;53.200;5.792;2023-02-28T02:37:33;12.10;;;2.97;;
53309;SDS011;39197;53.200;5.792;2023-02-28T02:40:09;13.18;;;3.33;;
53309;SDS011;39197;53.200;5.792;2023-02-28T02:42:56;19.70;;;5.30;;
53309;SDS011;39197;53.200;5.792;2023-02-28T02:45:40;9.68;;;2.08;;
53309;SDS011;39197;53.200;5.792;2023-02-28T02:48:11;10.10;;;2.47;;
53309;SDS011;39197;53.200;5.792;2023-02-28T02:50:44;10.40;;;2.53;;
53309;SDS011;39197;53.200;5.792;2023-02-28T02:53:14;12.07;;;2.95;;
53309;SDS011;39197;53.200;5.792;2023-02-28T02:55:44;11.68;;;2.10;;
53309;SDS011;39197;53.200;5.792;2023-02-28T02:58:14;11.77;;;3.80;;
53309;SDS011;39197;53.200;5.792;2023-02-28T03:00:44;12.98;;;2.50;;
53309;SDS011;39197;53.200;5.792;2023-02-28T03:03:12;11.75;;;3.58;;
53309;SDS011;39197;53.200;5.792;2023-02-28T03:05:49;10.90;;;3.30;;
53309;SDS011;39197;53.200;5.792;2023-02-28T03:08:15;14.52;;;3.60;;
53309;SDS011;39197;53.200;5.792;2023-02-28T03:10:42;13.02;;;3.10;;
53309;SDS011;39197;53.200;5.792;2023-02-28T03:13:21;13.82;;;3.03;;
53309;SDS011;39197;53.200;5.792;2023-02-28T03:24:45;9.80;;;2.33;;
53309;SDS011;39197;53.200;5.792;2023-02-28T03:27:26;7.32;;;2.10;;
53309;SDS011;39197;53.200;5.792;2023-02-28T03:30:03;7.32;;;1.48;;
53309;SDS011;39197;53.200;5.792;2023-02-28T03:35:35;9.43;;;1.55;;
53309;SDS011;39197;53.200;5.792;2023-02-28T03:38:13;9.07;;;2.53;;
53309;SDS011;39197;53.200;5.792;2023-02-28T03:40:47;8.20;;;1.58;;
53309;SDS011;39197;53.200;5.792;2023-02-28T03:43:18;4.15;;;1.27;;
53309;SDS011;39197;53.200;5.792;2023-02-28T03:45:47;12.27;;;1.80;;
53309;SDS011;39197;53.200;5.792;2023-02-28T03:48:24;11.93;;;1.75;;
53309;SDS011;39197;53.200;5.792;2023-02-28T03:50:55;10.68;;;1.70;;
53309;SDS011;39197;53.200;5.792;2023-02-28T03:56:06;5.93;;;1.67;;
53309;SDS011;39197;53.200;5.792;2023-02-28T03:58:49;10.80;;;1.55;;
53309;SDS011;39197;53.200;5.792;2023-02-28T04:01:25;8.43;;;1.58;;
53309;SDS011;39197;53.200;5.792;2023-02-28T04:03:54;6.00;;;1.40;;
53309;SDS011;39197;53.200;5.792;2023-02-28T04:06:21;9.70;;;1.75;;
53309;SDS011;39197;53.200;5.792;2023-02-28T04:08:48;8.07;;;1.25;;
53309;SDS011;39197;53.200;5.792;2023-02-28T04:11:22;8.73;;;1.85;;
53309;SDS011;39197;53.200;5.792;2023-02-28T04:13:52;6.70;;;1.23;;
53309;SDS011;39197;53.200;5.792;2023-02-28T04:16:18;8.10;;;1.27;;
53309;SDS011;39197;53.200;5.792;2023-02-28T04:18:43;7.43;;;1.23;;
53309;SDS011;39197;53.200;5.792;2023-02-28T04:21:09;12.82;;;1.38;;
53309;SDS011;39197;53.200;5.792;2023-02-28T04:23:36;8.02;;;1.20;;
53309;SDS011;39197;53.200;5.792;2023-02-28T04:26:02;7.88;;;1.40;;
53309;SDS011;39197;53.200;5.792;2023-02-28T04:28:28;8.98;;;1.20;;
53309;SDS011;39197;53.200;5.792;2023-02-28T04:30:58;12.13;;;1.95;;
53309;SDS011;39197;53.200;5.792;2023-02-28T04:33:26;8.48;;;1.88;;
53309;SDS011;39197;53.200;5.792;2023-02-28T04:36:02;8.70;;;1.30;;
53309;SDS011;39197;53.200;5.792;2023-02-28T04:38:37;8.32;;;0.95;;
53309;SDS011;39197;53.200;5.792;2023-02-28T04:41:04;8.82;;;1.05;;
53309;SDS011;39197;53.200;5.792;2023-02-28T04:43:30;9.70;;;1.77;;
53309;SDS011;39197;53.200;5.792;2023-02-28T04:45:56;7.65;;;0.90;;
53309;SDS011;39197;53.200;5.792;2023-02-28T04:48:24;5.40;;;1.20;;
53309;SDS011;39197;53.200;5.792;2023-02-28T04:50:50;9.02;;;1.83;;
53309;SDS011;39197;53.200;5.792;2023-02-28T04:53:16;7.68;;;1.20;;
53309;SDS011;39197;53.200;5.792;2023-02-28T04:55:42;9.25;;;1.17;;
53309;SDS011;39197;53.200;5.792;2023-02-28T04:58:08;9.75;;;1.13;;
53309;SDS011;39197;53.200;5.792;2023-02-28T05:00:34;10.38;;;1.67;;
53309;SDS011;39197;53.200;5.792;2023-02-28T05:02:59;5.40;;;1.20;;
53309;SDS011;39197;53.200;5.792;2023-02-28T05:05:25;7.13;;;0.98;;
53309;SDS011;39197;53.200;5.792;2023-02-28T05:07:50;11.38;;;1.10;;
53309;SDS011;39197;53.200;5.792;2023-02-28T05:10:16;4.28;;;0.90;;
53309;SDS011;39197;53.200;5.792;2023-02-28T05:12:42;6.25;;;0.77;;
53309;SDS011;39197;53.200;5.792;2023-02-28T05:15:08;6.30;;;0.80;;
53309;SDS011;39197;53.200;5.792;2023-02-28T05:17:38;6.50;;;1.13;;
53309;SDS011;39197;53.200;5.792;2023-02-28T05:20:04;11.40;;;1.13;;
53309;SDS011;39197;53.200;5.792;2023-02-28T05:22:30;4.28;;;0.82;;
53309;SDS011;39197;53.200;5.792;2023-02-28T05:24:57;10.10;;;1.15;;
53309;SDS011;39197;53.200;5.792;2023-02-28T05:27:22;7.43;;;1.20;;
53309;SDS011;39197;53.200;5.792;2023-02-28T05:29:48;6.45;;;1.23;;
53309;SDS011;39197;53.200;5.792;2023-02-28T05:32:13;4.60;;;0.88;;
53309;SDS011;39197;53.200;5.792;2023-02-28T05:34:39;5.88;;;1.00;;
53309;SDS011;39197;53.200;5.792;2023-02-28T05:37:06;10.15;;;1.55;;
53309;SDS011;39197;53.200;5.792;2023-02-28T05:39:36;6.95;;;0.90;;
53309;SDS011;39197;53.200;5.792;2023-02-28T05:42:02;5.22;;;0.95;;
53309;SDS011;39197;53.200;5.792;2023-02-28T05:44:27;8.23;;;1.08;;
53309;SDS011;39197;53.200;5.792;2023-02-28T05:46:53;6.32;;;1.02;;
53309;SDS011;39197;53.200;5.792;2023-02-28T05:49:19;9.98;;;1.40;;
53309;SDS011;39197;53.200;5.792;2023-02-28T05:51:44;8.15;;;1.25;;
53309;SDS011;39197;53.200;5.792;2023-02-28T05:54:10;15.55;;;1.42;;
53309;SDS011;39197;53.200;5.792;2023-02-28T05:56:36;5.47;;;1.52;;
53309;SDS011;39197;53.200;5.792;2023-02-28T05:59:04;6.30;;;1.10;;
53309;SDS011;39197;53.200;5.792;2023-02-28T06:01:34;8.98;;;1.30;;
53309;SDS011;39197;53.200;5.792;2023-02-28T06:04:03;13.82;;;1.80;;
53309;SDS011;39197;53.200;5.792;2023-02-28T06:06:29;7.50;;;1.42;;
53309;SDS011;39197;53.200;5.792;2023-02-28T06:08:55;8.73;;;1.20;;
53309;SDS011;39197;53.200;5.792;2023-02-28T06:11:21;11.95;;;1.13;;
53309;SDS011;39197;53.200;5.792;2023-02-28T06:13:53;14.20;;;1.88;;
53309;SDS011;39197;53.200;5.792;2023-02-28T06:16:20;14.77;;;1.67;;
53309;SDS011;39197;53.200;5.792;2023-02-28T06:18:46;16.48;;;1.40;;
53309;SDS011;39197;53.200;5.792;2023-02-28T06:21:12;14.57;;;2.13;;
53309;SDS011;39197;53.200;5.792;2023-02-28T06:23:37;7.30;;;2.53;;
53309;SDS011;39197;53.200;5.792;2023-02-28T06:26:03;6.78;;;3.42;;
53309;SDS011;39197;53.200;5.792;2023-02-28T06:28:29;6.22;;;4.43;;
53309;SDS011;39197;53.200;5.792;2023-02-28T06:30:55;6.90;;;3.95;;
53309;SDS011;39197;53.200;5.792;2023-02-28T06:33:20;5.55;;;4.22;;
53309;SDS011;39197;53.200;5.792;2023-02-28T06:35:47;4.43;;;3.25;;
53309;SDS011;39197;53.200;5.792;2023-02-28T06:38:15;6.38;;;3.90;;
53309;SDS011;39197;53.200;5.792;2023-02-28T06:40:40;7.75;;;4.30;;
53309;SDS011;39197;53.200;5.792;2023-02-28T06:43:06;5.35;;;4.40;;
53309;SDS011;39197;53.200;5.792;2023-02-28T06:45:32;5.15;;;4.55;;
53309;SDS011;39197;53.200;5.792;2023-02-28T06:47:58;6.38;;;4.28;;
53309;SDS011;39197;53.200;5.792;2023-02-28T06:50:25;5.75;;;4.45;;
53309;SDS011;39197;53.200;5.792;2023-02-28T06:52:52;4.82;;;4.22;;
53309;SDS011;39197;53.200;5.792;2023-02-28T06:55:19;5.18;;;4.45;;
53309;SDS011;39197;53.200;5.792;2023-02-28T06:57:44;6.50;;;4.78;;
53309;SDS011;39197;53.200;5.792;2023-02-28T07:00:10;6.82;;;6.00;;
53309;SDS011;39197;53.200;5.792;2023-02-28T07:02:36;7.20;;;6.20;;
53309;SDS011;39197;53.200;5.792;2023-02-28T07:05:02;6.68;;;4.90;;
53309;SDS011;39197;53.200;5.792;2023-02-28T07:07:29;8.18;;;6.38;;
53309;SDS011;39197;53.200;5.792;2023-02-28T07:09:55;9.30;;;6.88;;
53309;SDS011;39197;53.200;5.792;2023-02-28T07:12:21;8.80;;;7.55;;
53309;SDS011;39197;53.200;5.792;2023-02-28T07:14:47;9.43;;;7.55;;
53309;SDS011;39197;53.200;5.792;2023-02-28T07:17:12;10.35;;;7.10;;
53309;SDS011;39197;53.200;5.792;2023-02-28T07:19:38;7.65;;;6.47;;
53309;SDS011;39197;53.200;5.792;2023-02-28T07:22:04;9.93;;;8.85;;
53309;SDS011;39197;53.200;5.792;2023-02-28T07:24:30;13.85;;;10.05;;
53309;SDS011;39197;53.200;5.792;2023-02-28T07:26:59;11.50;;;10.30;;
53309;SDS011;39197;53.200;5.792;2023-02-28T07:29:26;14.40;;;12.32;;
53309;SDS011;39197;53.200;5.792;2023-02-28T07:31:51;16.90;;;12.63;;
53309;SDS011;39197;53.200;5.792;2023-02-28T07:34:18;18.08;;;13.13;;
53309;SDS011;39197;53.200;5.792;2023-02-28T07:36:44;18.23;;;12.85;;
53309;SDS011;39197;53.200;5.792;2023-02-28T07:39:10;17.95;;;13.30;;
53309;SDS011;39197;53.200;5.792;2023-02-28T07:41:35;17.02;;;12.43;;
53309;SDS011;39197;53.200;5.792;2023-02-28T07:44:08;13.13;;;11.23;;
53309;SDS011;39197;53.200;5.792;2023-02-28T07:46:34;16.55;;;12.70;;
53309;SDS011;39197;53.200;5.792;2023-02-28T07:49:01;14.02;;;10.50;;
53309;SDS011;39197;53.200;5.792;2023-02-28T07:51:28;13.65;;;11.25;;
53309;SDS011;39197;53.200;5.792;2023-02-28T07:53:54;12.68;;;10.77;;
53309;SDS011;39197;53.200;5.792;2023-02-28T07:56:20;14.35;;;10.57;;
53309;SDS011;39197;53.200;5.792;2023-02-28T07:58:46;18.38;;;13.98;;
53309;SDS011;39197;53.200;5.792;2023-02-28T08:01:11;19.55;;;14.98;;
53309;SDS011;39197;53.200;5.792;2023-02-28T08:03:37;16.38;;;12.43;;
53309;SDS011;39197;53.200;5.792;2023-02-28T08:06:04;17.60;;;14.20;;
53309;SDS011;39197;53.200;5.792;2023-02-28T08:08:31;16.95;;;11.98;;
53309;SDS011;39197;53.200;5.792;2023-02-28T08:11:01;17.65;;;13.07;;
53309;SDS011;39197;53.200;5.792;2023-02-28T08:13:28;21.08;;;16.02;;
53309;SDS011;39197;53.200;5.792;2023-02-28T08:15:54;18.90;;;13.20;;
53309;SDS011;39197;53.200;5.792;2023-02-28T08:18:21;18.40;;;14.48;;
53309;SDS011;39197;53.200;5.792;2023-02-28T08:20:47;21.02;;;14.70;;
53309;SDS011;39197;53.200;5.792;2023-02-28T08:23:13;19.33;;;15.05;;
53309;SDS011;39197;53.200;5.792;2023-02-28T08:25:38;13.20;;;9.98;;
53309;SDS011;39197;53.200;5.792;2023-02-28T08:28:04;18.15;;;14.93;;
53309;SDS011;39197;53.200;5.792;2023-02-28T08:30:30;17.58;;;14.13;;
53309;SDS011;39197;53.200;5.792;2023-02-28T08:32:55;26.58;;;17.27;;
53309;SDS011;39197;53.200;5.792;2023-02-28T08:35:21;18.85;;;15.18;;
53309;SDS011;39197;53.200;5.792;2023-02-28T08:37:48;22.23;;;16.15;;
53309;SDS011;39197;53.200;5.792;2023-02-28T08:40:14;19.13;;;16.35;;
53309;SDS011;39197;53.200;5.792;2023-02-28T08:42:46;21.83;;;16.40;;
53309;SDS011;39197;53.200;5.792;2023-02-28T08:45:12;21.92;;;16.48;;
53309;SDS011;39197;53.200;5.792;2023-02-28T08:47:39;18.83;;;16.08;;
53309;SDS011;39197;53.200;5.792;2023-02-28T08:50:05;19.20;;;16.13;;
53309;SDS011;39197;53.200;5.792;2023-02-28T08:52:31;19.55;;;15.70;;
53309;SDS011;39197;53.200;5.792;2023-02-28T08:54:57;19.50;;;14.98;;
53309;SDS011;39197;53.200;5.792;2023-02-28T08:57:22;17.48;;;14.63;;
53309;SDS011;39197;53.200;5.792;2023-02-28T08:59:48;16.80;;;13.38;;
53309;SDS011;39197;53.200;5.792;2023-02-28T09:02:14;18.05;;;14.68;;
53309;SDS011;39197;53.200;5.792;2023-02-28T09:04:40;16.48;;;13.88;;
53309;SDS011;39197;53.200;5.792;2023-02-28T09:07:06;13.73;;;9.80;;
53309;SDS011;39197;53.200;5.792;2023-02-28T09:09:32;15.95;;;12.40;;
53309;SDS011;39197;53.200;5.792;2023-02-28T09:11:58;16.15;;;12.88;;
53309;SDS011;39197;53.200;5.792;2023-02-28T09:14:24;15.13;;;12.77;;
53309;SDS011;39197;53.200;5.792;2023-02-28T09:16:49;16.67;;;13.98;;
53309;SDS011;39197;53.200;5.792;2023-02-28T09:19:15;13.45;;;11.95;;
53309;SDS011;39197;53.200;5.792;2023-02-28T09:21:41;13.80;;;12.30;;
53309;SDS011;39197;53.200;5.792;2023-02-28T09:24:07;13.68;;;12.27;;
53309;SDS011;39197;53.200;5.792;2023-02-28T09:26:32;14.45;;;12.95;;
53309;SDS011;39197;53.200;5.792;2023-02-28T09:28:59;16.75;;;13.45;;
53309;SDS011;39197;53.200;5.792;2023-02-28T09:31:25;17.05;;;14.43;;
53309;SDS011;39197;53.200;5.792;2023-02-28T09:33:53;13.43;;;11.60;;
53309;SDS011;39197;53.200;5.792;2023-02-28T09:36:21;13.55;;;11.45;;
53309;SDS011;39197;53.200;5.792;2023-02-28T09:38:48;14.27;;;12.57;;
53309;SDS011;39197;53.200;5.792;2023-02-28T09:41:17;12.20;;;10.93;;
53309;SDS011;39197;53.200;5.792;2023-02-28T09:43:58;14.38;;;12.65;;
53309;SDS011;39197;53.200;5.792;2023-02-28T09:48:57;15.00;;;12.20;;
53309;SDS011;39197;53.200;5.792;2023-02-28T09:51:30;13.48;;;12.10;;
53309;SDS011;39197;53.200;5.792;2023-02-28T09:54:13;13.85;;;12.30;;
53309;SDS011;39197;53.200;5.792;2023-02-28T09:56:44;14.27;;;11.40;;
53309;SDS011;39197;53.200;5.792;2023-02-28T09:59:36;12.82;;;11.18;;
53309;SDS011;39197;53.200;5.792;2023-02-28T10:05:38;13.32;;;10.63;;
53309;SDS011;39197;53.200;5.792;2023-02-28T10:08:21;14.32;;;11.15;;
53309;SDS011;39197;53.200;5.792;2023-02-28T10:10:55;12.13;;;10.80;;
53309;SDS011;39197;53.200;5.792;2023-02-28T10:16:01;11.23;;;9.93;;
53309;SDS011;39197;53.200;5.792;2023-02-28T10:18:43;8.93;;;7.05;;
53309;SDS011;39197;53.200;5.792;2023-02-28T10:21:31;10.05;;;8.13;;
53309;SDS011;39197;53.200;5.792;2023-02-28T10:26:43;9.98;;;7.90;;
53309;SDS011;39197;53.200;5.792;2023-02-28T10:29:10;13.45;;;7.45;;
53309;SDS011;39197;53.200;5.792;2023-02-28T10:31:36;19.02;;;8.48;;
53309;SDS011;39197;53.200;5.792;2023-02-28T10:34:03;7.68;;;5.90;;
53309;SDS011;39197;53.200;5.792;2023-02-28T10:36:31;10.05;;;6.82;;
53309;SDS011;39197;53.200;5.792;2023-02-28T10:38:57;8.77;;;6.65;;
53309;SDS011;39197;53.200;5.792;2023-02-28T10:41:31;6.90;;;5.45;;
53309;SDS011;39197;53.200;5.792;2023-02-28T10:44:12;8.55;;;6.22;;
53309;SDS011;39197;53.200;5.792;2023-02-28T10:46:42;16.17;;;5.18;;
53309;SDS011;39197;53.200;5.792;2023-02-28T10:49:27;9.73;;;4.43;;
53309;SDS011;39197;53.200;5.792;2023-02-28T10:51:55;7.10;;;5.00;;
53309;SDS011;39197;53.200;5.792;2023-02-28T10:54:33;5.78;;;4.40;;
53309;SDS011;39197;53.200;5.792;2023-02-28T11:00:06;16.58;;;5.05;;
53309;SDS011;39197;53.200;5.792;2023-02-28T11:02:44;5.70;;;3.35;;
53309;SDS011;39197;53.200;5.792;2023-02-28T11:05:31;5.85;;;3.13;;
53309;SDS011;39197;53.200;5.792;2023-02-28T11:08:02;6.93;;;3.67;;
53309;SDS011;39197;53.200;5.792;2023-02-28T11:10:30;4.25;;;3.00;;
53309;SDS011;39197;53.200;5.792;2023-02-28T11:12:59;5.22;;;3.45;;
53309;SDS011;39197;53.200;5.792;2023-02-28T11:18:00;5.55;;;3.30;;
53309;SDS011;39197;53.200;5.792;2023-02-28T11:20:43;6.75;;;3.60;;
53309;SDS011;39197;53.200;5.792;2023-02-28T11:23:17;8.25;;;3.47;;
53309;SDS011;39197;53.200;5.792;2023-02-28T11:25:49;4.47;;;3.05;;
53309;SDS011;39197;53.200;5.792;2023-02-28T11:28:34;8.00;;;3.88;;
53309;SDS011;39197;53.200;5.792;2023-02-28T11:31:03;3.58;;;2.78;;
53309;SDS011;39197;53.200;5.792;2023-02-28T11:33:32;3.90;;;2.75;;
53309;SDS011;39197;53.200;5.792;2023-02-28T11:39:10;4.05;;;2.88;;
53309;SDS011;39197;53.200;5.792;2023-02-28T11:47:03;3.72;;;2.63;;
53309;SDS011;39197;53.200;5.792;2023-02-28T12:01:07;2.08;;;1.70;;
53309;SDS011;39197;53.200;5.792;2023-02-28T12:12:30;2.78;;;2.20;;
53309;SDS011;39197;53.200;5.792;2023-02-28T12:15:33;13.63;;;12.13;;
53309;SDS011;39197;53.200;5.792;2023-02-28T12:21:01;5.07;;;2.33;;
53309;SDS011;39197;53.200;5.792;2023-02-28T12:26:35;3.08;;;1.60;;
53309;SDS011;39197;53.200;5.792;2023-02-28T12:32:04;4.15;;;2.40;;
53309;SDS011;39197;53.200;5.792;2023-02-28T12:34:39;3.38;;;1.60;;
53309;SDS011;39197;53.200;5.792;2023-02-28T12:37:14;13.23;;;3.75;;
53309;SDS011;39197;53.200;5.792;2023-02-28T12:39:45;2.90;;;2.15;;
53309;SDS011;39197;53.200;5.792;2023-02-28T12:42:17;4.60;;;2.22;;
53309;SDS011;39197;53.200;5.792;2023-02-28T12:44:52;4.57;;;1.90;;
53309;SDS011;39197;53.200;5.792;2023-02-28T12:47:24;1.83;;;1.20;;
53309;SDS011;39197;53.200;5.792;2023-02-28T12:50:03;2.58;;;1.15;;
53309;SDS011;39197;53.200;5.792;2023-02-28T12:52:46;2.83;;;1.50;;
53309;SDS011;39197;53.200;5.792;2023-02-28T13:11:43;4.00;;;2.28;;
53309;SDS011;39197;53.200;5.792;2023-02-28T13:17:21;3.53;;;2.45;;
53309;SDS011;39197;53.200;5.792;2023-02-28T13:24:57;5.32;;;4.18;;
53309;SDS011;39197;53.200;5.792;2023-02-28T13:27:40;6.95;;;5.10;;
53309;SDS011;39197;53.200;5.792;2023-02-28T13:36:26;4.97;;;3.15;;
53309;SDS011;39197;53.200;5.792;2023-02-28T13:39:00;5.63;;;3.25;;
53309;SDS011;39197;53.200;5.792;2023-02-28T13:49:30;8.60;;;4.90;;
53309;SDS011;39197;53.200;5.792;2023-02-28T13:57:13;4.35;;;2.30;;
53309;SDS011;39197;53.200;5.792;2023-02-28T14:05:24;8.40;;;7.35;;
53309;SDS011;39197;53.200;5.792;2023-02-28T14:07:58;4.13;;;3.50;;
53309;SDS011;39197;53.200;5.792;2023-02-28T14:10:32;4.38;;;2.95;;
53309;SDS011;39197;53.200;5.792;2023-02-28T14:13:41;4.88;;;2.88;;
53309;SDS011;39197;53.200;5.792;2023-02-28T14:16:13;6.97;;;5.00;;
53309;SDS011;39197;53.200;5.792;2023-02-28T14:18:51;7.55;;;4.88;;
53309;SDS011;39197;53.200;5.792;2023-02-28T14:21:39;6.60;;;5.18;;
53309;SDS011;39197;53.200;5.792;2023-02-28T14:24:39;5.05;;;3.63;;
53309;SDS011;39197;53.200;5.792;2023-02-28T14:27:55;5.43;;;3.50;;
53309;SDS011;39197;53.200;5.792;2023-02-28T14:33:22;4.45;;;3.47;;
53309;SDS011;39197;53.200;5.792;2023-02-28T14:36:12;4.25;;;3.55;;
53309;SDS011;39197;53.200;5.792;2023-02-28T14:39:03;4.55;;;3.58;;
53309;SDS011;39197;53.200;5.792;2023-02-28T14:41:33;4.50;;;3.03;;
53309;SDS011;39197;53.200;5.792;2023-02-28T14:44:13;14.60;;;10.98;;
53309;SDS011;39197;53.200;5.792;2023-02-28T14:46:52;4.60;;;2.50;;
53309;SDS011;39197;53.200;5.792;2023-02-28T14:54:27;4.75;;;3.00;;
53309;SDS011;39197;53.200;5.792;2023-02-28T14:56:54;4.78;;;3.50;;
53309;SDS011;39197;53.200;5.792;2023-02-28T14:59:30;7.50;;;5.60;;
53309;SDS011;39197;53.200;5.792;2023-02-28T15:04:54;5.50;;;3.10;;
53309;SDS011;39197;53.200;5.792;2023-02-28T15:07:22;4.82;;;3.00;;
53309;SDS011;39197;53.200;5.792;2023-02-28T15:15:45;4.25;;;3.20;;
53309;SDS011;39197;53.200;5.792;2023-02-28T15:21:11;6.55;;;3.80;;
53309;SDS011;39197;53.200;5.792;2023-02-28T15:23:43;6.13;;;3.22;;
53309;SDS011;39197;53.200;5.792;2023-02-28T15:26:14;4.50;;;3.13;;
53309;SDS011;39197;53.200;5.792;2023-02-28T15:28:41;14.75;;;13.20;;
53309;SDS011;39197;53.200;5.792;2023-02-28T15:31:19;3.40;;;3.00;;
53309;SDS011;39197;53.200;5.792;2023-02-28T15:33:54;4.28;;;3.55;;
53309;SDS011;39197;53.200;5.792;2023-02-28T15:36:24;4.55;;;4.13;;
53309;SDS011;39197;53.200;5.792;2023-02-28T15:38:52;8.32;;;3.25;;
53309;SDS011;39197;53.200;5.792;2023-02-28T15:41:23;7.72;;;6.43;;
53309;SDS011;39197;53.200;5.792;2023-02-28T15:46:57;8.65;;;5.47;;
53309;SDS011;39197;53.200;5.792;2023-02-28T15:49:26;6.25;;;4.50;;
53309;SDS011;39197;53.200;5.792;2023-02-28T15:51:53;6.32;;;5.05;;
53309;SDS011;39197;53.200;5.792;2023-02-28T15:54:24;6.25;;;5.03;;
53309;SDS011;39197;53.200;5.792;2023-02-28T15:56:58;6.43;;;4.93;;
53309;SDS011;39197;53.200;5.792;2023-02-28T15:59:29;5.55;;;4.13;;
53309;SDS011;39197;53.200;5.792;2023-02-28T16:02:03;8.77;;;6.88;;
53309;SDS011;39197;53.200;5.792;2023-02-28T16:04:29;5.40;;;4.38;;
53309;SDS011;39197;53.200;5.792;2023-02-28T16:09:26;7.60;;;6.75;;
53309;SDS011;39197;53.200;5.792;2023-02-28T16:11:55;6.00;;;5.18;;
53309;SDS011;39197;53.200;5.792;2023-02-28T16:14:23;7.57;;;4.75;;
53309;SDS011;39197;53.200;5.792;2023-02-28T16:16:53;5.65;;;4.93;;
53309;SDS011;39197;53.200;5.792;2023-02-28T16:19:21;9.00;;;6.70;;
53309;SDS011;39197;53.200;5.792;2023-02-28T16:21:47;8.40;;;5.55;;
53309;SDS011;39197;53.200;5.792;2023-02-28T16:24:13;6.72;;;5.47;;
53309;SDS011;39197;53.200;5.792;2023-02-28T16:26:44;5.68;;;4.00;;
53309;SDS011;39197;53.200;5.792;2023-02-28T16:29:17;6.88;;;4.43;;
53309;SDS011;39197;53.200;5.792;2023-02-28T16:31:49;7.85;;;5.30;;
53309;SDS011;39197;53.200;5.792;2023-02-28T16:34:14;12.45;;;8.50;;
53309;SDS011;39197;53.200;5.792;2023-02-28T16:36:40;12.98;;;10.13;;
53309;SDS011;39197;53.200;5.792;2023-02-28T16:39:06;7.10;;;5.32;;
53309;SDS011;39197;53.200;5.792;2023-02-28T16:41:32;6.90;;;5.28;;
53309;SDS011;39197;53.200;5.792;2023-02-28T16:43:59;10.00;;;6.32;;
53309;SDS011;39197;53.200;5.792;2023-02-28T16:46:33;9.65;;;7.72;;
53309;SDS011;39197;53.200;5.792;2023-02-28T16:48:59;8.23;;;7.20;;
53309;SDS011;39197;53.200;5.792;2023-02-28T16:51:25;12.07;;;9.60;;
53309;SDS011;39197;53.200;5.792;2023-02-28T16:53:51;9.65;;;7.82;;
53309;SDS011;39197;53.200;5.792;2023-02-28T16:56:21;7.47;;;6.43;;
53309;SDS011;39197;53.200;5.792;2023-02-28T16:58:49;20.60;;;15.10;;
53309;SDS011;39197;53.200;5.792;2023-02-28T17:01:16;10.40;;;7.28;;
53309;SDS011;39197;53.200;5.792;2023-02-28T17:03:46;9.73;;;7.15;;
53309;SDS011;39197;53.200;5.792;2023-02-28T17:06:17;9.63;;;7.93;;
53309;SDS011;39197;53.200;5.792;2023-02-28T17:08:45;8.07;;;6.70;;
53309;SDS011;39197;53.200;5.792;2023-02-28T17:11:11;9.48;;;6.95;;
53309;SDS011;39197;53.200;5.792;2023-02-28T17:13:36;10.98;;;8.27;;
53309;SDS011;39197;53.200;5.792;2023-02-28T17:16:02;8.27;;;6.97;;
53309;SDS011;39197;53.200;5.792;2023-02-28T17:18:28;12.40;;;9.50;;
53309;SDS011;39197;53.200;5.792;2023-02-28T17:20:58;9.20;;;7.72;;
53309;SDS011;39197;53.200;5.792;2023-02-28T17:23:24;10.45;;;8.00;;
53309;SDS011;39197;53.200;5.792;2023-02-28T17:25:50;12.48;;;9.10;;
53309;SDS011;39197;53.200;5.792;2023-02-28T17:28:22;12.50;;;7.88;;
53309;SDS011;39197;53.200;5.792;2023-02-28T17:30:48;14.05;;;9.05;;
53309;SDS011;39197;53.200;5.792;2023-02-28T17:33:14;15.00;;;9.88;;
53309;SDS011;39197;53.200;5.792;2023-02-28T17:35:40;13.27;;;9.18;;
53309;SDS011;39197;53.200;5.792;2023-02-28T17:38:12;10.52;;;7.95;;
53309;SDS011;39197;53.200;5.792;2023-02-28T17:40:43;10.30;;;7.90;;